Donnington, United Kingdom
Current Conditions -  °F | °C
As of 1:50 AM on Sunday 23 Nov 2014 (Local Time) from EGVN Reporting Station
Light Rain Light Rain  
Wind Chill: 50°   Ceiling: 3500
Heat Index: 50°   Visibility: 6mi
Dew Point: 48°   Wind: 5mph
Humidity: 94%   Direction: 330°NNW
Pressure: 29.97"   Gusts: NA
Location:  51.95°N, 1.72°W
Report Text: EGVN 230150Z 33004KT 9999 -RA BKN035 BKN060 10/09 Q1015 BLU NOSIG
Loading
Personal Weather Stations






























Interactive Weather Map New forecast layout! Learn more

10-Day Weather Forecast

Advertisements
Track Severe Weather on mobile